Terminal Aerodrome Forecast
Issued by NWS Atlanta, GA

Home | Current Version | Previous Version | Text Only | Print | Product List | Glossary On
Versions: 1 2 3 4 5 6 7 8 9 10 11 12 13 14 15 16 17 18 19
034
FTUS42 KFFC 251133
TAFCSG
TAF
KCSG 251133Z 2512/2612 VRB03KT P6SM SCT040 SCT100
     FM251500 35007KT P6SM BKN250
     FM251800 34011G18KT P6SM SCT050
     FM260000 35004KT P6SM OVC250
     FM260800 03003KT P6SM BKN250=

USA.gov is the U.S. government's official web portal to all federal, state and local government web resources and services.